createdAt,value
2023-05-17T00:00:00.000Z,11.26
2023-05-17T00:15:00.000Z,11.22
2023-05-17T00:30:00.000Z,11.12
2023-05-17T00:45:00.000Z,11.05
2023-05-17T01:00:00.000Z,10.93
2023-05-17T01:15:00.000Z,10.73
2023-05-17T01:30:00.000Z,10.69
2023-05-17T01:45:00.000Z,10.67
2023-05-17T02:00:00.000Z,10.69
2023-05-17T02:15:00.000Z,10.51
2023-05-17T02:30:00.000Z,10.56
2023-05-17T02:45:00.000Z,10.63
2023-05-17T03:00:00.000Z,10.57
2023-05-17T03:15:00.000Z,10.42
2023-05-17T03:30:00.000Z,10.39
2023-05-17T03:45:00.000Z,10.13
2023-05-17T04:00:00.000Z,10.25
2023-05-17T04:15:00.000Z,10.23
2023-05-17T04:15:00.000Z,10.23
2023-05-17T04:45:00.000Z,10.13
2023-05-17T05:00:00.000Z,10.41
2023-05-17T05:15:00.000Z,10.55
2023-05-17T05:30:00.000Z,10.63
2023-05-17T05:45:00.000Z,10.56
2023-05-17T06:00:00.000Z,10.39
2023-05-17T06:15:00.000Z,10.32
2023-05-17T06:30:00.000Z,10.3
2023-05-17T06:45:00.000Z,10.24
2023-05-17T07:00:00.000Z,10.29
2023-05-17T07:15:00.000Z,10.43
2023-05-17T07:30:00.000Z,10.49
2023-05-17T07:45:00.000Z,10.36
2023-05-17T08:00:00.000Z,10.23
2023-05-17T08:15:00.000Z,10.17
2023-05-17T08:30:00.000Z,10.38
2023-05-17T08:45:00.000Z,10.35
2023-05-17T09:00:00.000Z,10.5
2023-05-17T09:15:00.000Z,10.61
2023-05-17T09:30:00.000Z,10.94
2023-05-17T09:45:00.000Z,11.03
2023-05-17T10:00:00.000Z,11.12
2023-05-17T10:15:00.000Z,11.24
2023-05-17T10:30:00.000Z,11.18
2023-05-17T10:45:00.000Z,11.26
2023-05-17T11:00:00.000Z,10.98
2023-05-17T11:15:00.000Z,10.97
2023-05-17T11:30:00.000Z,11.34
2023-05-17T11:45:00.000Z,11.62
2023-05-17T12:00:00.000Z,11.51
2023-05-17T12:15:00.000Z,11.46
2023-05-17T12:30:00.000Z,11.62
2023-05-17T12:45:00.000Z,11.76
2023-05-17T13:00:00.000Z,11.73
2023-05-17T13:15:00.000Z,11.68
2023-05-17T13:30:00.000Z,11.49
2023-05-17T13:45:00.000Z,11.32
2023-05-17T14:00:00.000Z,11.25
2023-05-17T14:15:00.000Z,11.19
2023-05-17T14:30:00.000Z,10.87
2023-05-17T14:45:00.000Z,10.81
2023-05-17T15:00:00.000Z,10.79
2023-05-17T15:15:00.000Z,10.76
2023-05-17T15:30:00.000Z,10.82
2023-05-17T15:45:00.000Z,10.77
2023-05-17T16:00:00.000Z,10.61
2023-05-17T16:15:00.000Z,10.6
2023-05-17T16:30:00.000Z,10.58
2023-05-17T16:45:00.000Z,10.44
2023-05-17T17:00:00.000Z,10.33
2023-05-17T17:15:00.000Z,10.31
2023-05-17T17:30:00.000Z,10.37
2023-05-17T17:45:00.000Z,10.35
2023-05-17T18:00:00.000Z,10.32
2023-05-17T18:15:00.000Z,10.16
2023-05-17T18:30:00.000Z,9.98
2023-05-17T18:45:00.000Z,10.22
2023-05-17T19:00:00.000Z,10.23
2023-05-17T19:15:00.000Z,10.09
2023-05-17T19:30:00.000Z,10.01
2023-05-17T19:45:00.000Z,9.98
2023-05-17T20:00:00.000Z,9.89
2023-05-17T20:15:00.000Z,9.85
2023-05-17T20:30:00.000Z,9.87
2023-05-17T20:45:00.000Z,9.87
2023-05-17T21:00:00.000Z,9.82
2023-05-17T21:15:00.000Z,9.73
2023-05-17T21:30:00.000Z,9.7
2023-05-17T21:45:00.000Z,9.72
2023-05-17T22:00:00.000Z,9.67
2023-05-17T22:15:00.000Z,9.59
2023-05-17T22:30:00.000Z,9.54
2023-05-17T22:45:00.000Z,9.68
2023-05-17T23:00:00.000Z,9.76
2023-05-17T23:15:00.000Z,9.75
2023-05-17T23:30:00.000Z,9.79
2023-05-17T23:45:00.000Z,9.63
